createdAt,value
2018-09-06T11:28:34.015Z,76.10
2018-09-06T11:31:02.598Z,76.60
2018-09-06T11:33:30.621Z,70.60
2018-09-06T11:35:59.559Z,67.50
2018-09-06T11:38:27.544Z,69.40
2018-09-06T11:40:56.628Z,69.40
2018-09-06T11:43:25.271Z,72.00
2018-09-06T11:45:53.224Z,70.00
2018-09-06T11:48:22.179Z,69.80
2018-09-06T11:50:50.641Z,74.40
2018-09-06T11:53:19.111Z,70.70
2018-09-06T11:55:48.218Z,67.60
2018-09-06T11:58:16.275Z,68.40
2018-09-06T12:00:45.901Z,71.50
2018-09-06T12:03:13.867Z,72.60
2018-09-06T12:05:42.324Z,70.20
2018-09-06T12:08:11.469Z,70.20
2018-09-06T12:10:39.460Z,71.70
2018-09-06T12:13:09.432Z,71.30
2018-09-06T12:15:37.415Z,70.50
2018-09-06T12:18:05.365Z,71.10
2018-09-06T12:20:33.326Z,70.00
2018-09-06T12:23:01.420Z,71.20
2018-09-06T12:25:30.054Z,71.40
2018-09-06T12:27:58.495Z,69.20
2018-09-06T12:30:26.641Z,70.50
2018-09-06T12:32:54.934Z,71.10
2018-09-06T12:35:23.043Z,71.00
2018-09-06T12:37:51.613Z,70.80
2018-09-06T12:40:19.561Z,70.30
2018-09-06T12:42:49.179Z,68.80
2018-09-06T12:45:17.192Z,68.70
2018-09-06T12:47:45.182Z,67.90
2018-09-06T12:50:13.801Z,67.00
2018-09-06T12:52:42.422Z,65.10
2018-09-06T12:55:11.482Z,65.10
2018-09-06T12:57:40.881Z,65.70
2018-09-06T13:00:08.950Z,63.30
2018-09-06T13:02:37.774Z,62.10
2018-09-06T13:05:06.238Z,65.20
2018-09-06T13:07:34.290Z,65.20
2018-09-06T13:10:03.285Z,66.10
2018-09-06T13:12:31.235Z,66.00
2018-09-06T13:14:59.260Z,66.60
2018-09-06T13:17:27.376Z,63.60
2018-09-06T13:19:55.426Z,65.90
2018-09-06T13:22:23.430Z,65.90
2018-09-06T13:24:52.096Z,63.10
2018-09-06T13:27:20.131Z,62.70
2018-09-06T13:29:48.025Z,63.90
2018-09-06T13:32:16.171Z,64.60
2018-09-06T13:34:44.108Z,64.30
2018-09-06T13:37:12.084Z,63.40
2018-09-06T13:39:42.276Z,63.80
2018-09-06T13:42:11.179Z,63.60
2018-09-06T13:44:39.315Z,66.60
2018-09-06T13:47:07.426Z,66.50
2018-09-06T13:49:35.348Z,64.60
2018-09-06T13:52:03.528Z,64.70
2018-09-06T13:54:31.409Z,63.20
2018-09-06T13:56:59.400Z,64.90
2018-09-06T13:59:27.432Z,67.60
2018-09-06T14:01:56.391Z,68.90
2018-09-06T14:04:24.317Z,65.90
2018-09-06T14:06:52.903Z,68.60
2018-09-06T14:09:22.164Z,67.50
2018-09-06T14:11:50.270Z,65.40
2018-09-06T14:14:18.987Z,64.10
2018-09-06T14:16:47.546Z,64.10
2018-09-06T14:19:16.065Z,65.10
2018-09-06T14:21:44.017Z,65.50
2018-09-06T14:24:12.312Z,66.30
2018-09-06T14:26:42.717Z,66.90
2018-09-06T14:29:10.662Z,64.60
2018-09-06T14:31:38.607Z,63.30
2018-09-06T14:34:06.505Z,64.70
2018-09-06T14:36:35.241Z,65.00
2018-09-06T14:39:04.138Z,65.10
2018-09-06T14:41:32.380Z,65.60
2018-09-06T14:44:00.389Z,64.60
2018-09-06T14:46:28.287Z,63.60
2018-09-06T14:48:56.281Z,64.80
2018-09-06T14:51:24.340Z,65.70
2018-09-06T14:53:52.251Z,65.80
2018-09-06T14:56:20.322Z,66.00
2018-09-06T14:58:48.524Z,66.40
2018-09-06T15:01:17.324Z,65.20
2018-09-06T15:03:45.531Z,64.30
2018-09-06T15:06:13.627Z,64.40
2018-09-06T15:08:41.590Z,67.20
2018-09-06T15:11:09.607Z,69.00
2018-09-06T15:13:38.375Z,68.30
2018-09-06T15:16:06.991Z,66.40
2018-09-06T15:18:35.052Z,68.10
2018-09-06T15:21:02.965Z,66.10
2018-09-06T15:23:30.903Z,67.20
2018-09-06T15:25:58.843Z,69.20
2018-09-06T15:28:27.995Z,69.20
2018-09-06T15:30:56.533Z,67.10
2018-09-06T15:33:25.083Z,67.50
2018-09-06T15:35:53.762Z,68.50
2018-09-06T15:38:21.689Z,68.00
2018-09-06T15:40:49.630Z,69.30
2018-09-06T15:43:17.771Z,68.80
2018-09-06T15:45:45.945Z,69.40
2018-09-06T15:48:13.869Z,68.20
2018-09-06T15:50:42.063Z,68.80
2018-09-06T15:53:10.331Z,67.00
2018-09-06T15:55:38.894Z,68.50
2018-09-06T15:58:07.441Z,68.90
2018-09-06T16:00:36.063Z,70.30
2018-09-06T16:03:04.722Z,68.60
2018-09-06T16:05:33.487Z,70.40
2018-09-06T16:08:01.468Z,70.10
2018-09-06T16:10:30.100Z,70.10
2018-09-06T16:12:58.713Z,72.40
2018-09-06T16:15:26.640Z,72.10
2018-09-06T16:17:55.532Z,71.90
2018-09-06T16:20:23.481Z,71.60
2018-09-06T16:22:52.622Z,68.30
2018-09-06T16:25:20.633Z,68.60
2018-09-06T16:27:49.718Z,70.10
2018-09-06T16:30:18.002Z,68.10
2018-09-06T16:32:45.909Z,68.00
2018-09-06T16:35:14.733Z,69.00
2018-09-06T16:37:43.170Z,70.20
2018-09-06T16:40:11.135Z,69.60
2018-09-06T16:42:39.162Z,70.30
2018-09-06T16:45:08.278Z,69.30
2018-09-06T16:47:36.210Z,68.80
2018-09-06T16:50:05.610Z,70.00
2018-09-06T16:52:33.895Z,69.80
2018-09-06T16:55:01.765Z,69.90
2018-09-06T16:57:30.478Z,71.00
2018-09-06T16:59:58.426Z,73.80
2018-09-06T17:02:26.930Z,73.70
2018-09-06T17:04:56.033Z,72.60
2018-09-06T17:07:24.499Z,72.60
2018-09-06T17:09:53.445Z,73.20
2018-09-06T17:12:22.174Z,73.70
2018-09-06T17:14:50.346Z,74.00
2018-09-06T17:17:18.782Z,74.50
2018-09-06T17:19:50.143Z,75.80
2018-09-06T17:22:19.311Z,76.70
2018-09-06T17:24:47.965Z,77.30
2018-09-06T17:27:15.885Z,78.00
2018-09-06T17:29:44.695Z,78.30
2018-09-06T17:32:13.459Z,79.10
2018-09-06T17:34:42.725Z,79.40
2018-09-06T17:37:11.287Z,79.60
2018-09-06T17:39:39.405Z,80.00
2018-09-06T17:42:07.534Z,80.20
2018-09-06T17:44:36.110Z,79.90
2018-09-06T17:47:04.663Z,79.70
2018-09-06T17:49:32.663Z,80.00
2018-09-06T17:52:01.711Z,79.80
2018-09-06T17:54:29.709Z,80.20
2018-09-06T17:56:57.655Z,80.40
2018-09-06T17:59:26.249Z,80.70
2018-09-06T18:01:55.572Z,80.80
2018-09-06T18:04:23.872Z,81.10
2018-09-06T18:06:51.884Z,81.10
2018-09-06T18:09:19.937Z,81.00
2018-09-06T18:11:50.703Z,81.20
2018-09-06T18:14:21.232Z,81.00
2018-09-06T18:16:51.740Z,81.20
2018-09-06T18:19:19.678Z,81.00
2018-09-06T18:21:48.231Z,81.10
2018-09-06T18:24:17.135Z,81.20
2018-09-06T18:26:45.117Z,81.10
2018-09-06T18:29:15.080Z,81.00
2018-09-06T18:31:44.318Z,80.90
2018-09-06T18:34:13.654Z,81.20
2018-09-06T18:36:42.167Z,82.50
2018-09-06T18:39:11.102Z,83.30
2018-09-06T18:41:40.620Z,83.30
2018-09-06T18:44:08.851Z,83.90
2018-09-06T18:46:36.847Z,84.70
2018-09-06T18:49:05.644Z,85.30
2018-09-06T18:51:34.127Z,85.80
2018-09-06T18:54:03.097Z,85.70
2018-09-06T18:56:32.180Z,86.20
2018-09-06T18:59:00.167Z,86.30
2018-09-06T19:01:28.257Z,86.20
2018-09-06T19:03:57.613Z,86.00
2018-09-06T19:06:25.575Z,86.00
2018-09-06T19:08:53.910Z,86.10
2018-09-06T19:11:23.125Z,86.70
2018-09-06T19:13:51.107Z,86.70
2018-09-06T19:16:22.216Z,86.90
2018-09-06T19:18:50.156Z,86.90
2018-09-06T19:21:19.102Z,87.20
2018-09-06T19:23:47.284Z,87.30
2018-09-06T19:26:16.741Z,87.40
2018-09-06T19:28:45.723Z,87.60
2018-09-06T19:31:16.093Z,88.40
2018-09-06T19:33:45.786Z,89.00
2018-09-06T19:36:15.720Z,89.70
2018-09-06T19:38:44.241Z,89.80
2018-09-06T19:41:14.760Z,90.10
2018-09-06T19:43:44.062Z,90.20
2018-09-06T19:46:12.646Z,90.30
2018-09-06T19:48:41.122Z,90.40
2018-09-06T19:51:10.360Z,90.40
2018-09-06T19:53:38.703Z,90.50
2018-09-06T19:56:07.587Z,90.70
2018-09-06T19:58:36.299Z,91.20
2018-09-06T20:01:05.795Z,90.80
2018-09-06T20:03:36.904Z,91.00
2018-09-06T20:06:05.978Z,90.70
2018-09-06T20:08:35.432Z,90.60
2018-09-06T20:11:03.474Z,90.70
2018-09-06T20:13:31.960Z,90.80
2018-09-06T20:16:01.464Z,90.80
2018-09-06T20:18:30.655Z,91.50
2018-09-06T20:20:59.546Z,91.60
2018-09-06T20:23:28.152Z,91.70
2018-09-06T20:25:56.227Z,91.60
2018-09-06T20:28:24.299Z,91.80
2018-09-06T20:30:53.588Z,92.00
2018-09-06T20:33:23.224Z,92.00
2018-09-06T20:35:53.034Z,91.90
2018-09-06T20:38:21.594Z,92.00
2018-09-06T20:40:50.304Z,91.90
2018-09-06T20:43:19.453Z,92.00
2018-09-06T20:45:49.506Z,92.10
2018-09-06T20:48:18.159Z,92.00
2018-09-06T20:50:48.403Z,92.10
2018-09-06T20:53:17.807Z,92.30
2018-09-06T20:55:47.453Z,92.30
2018-09-06T20:58:15.653Z,92.30
2018-09-06T21:00:44.324Z,92.10
2018-09-06T21:03:15.211Z,92.00
2018-09-06T21:05:45.663Z,92.00
2018-09-06T21:08:14.274Z,92.40
2018-09-06T21:10:42.997Z,92.80
2018-09-06T21:13:12.552Z,92.70
2018-09-06T21:15:41.403Z,92.70
2018-09-06T21:18:10.571Z,92.60
2018-09-06T21:20:41.354Z,92.80
2018-09-06T21:23:10.529Z,92.90
2018-09-06T21:25:42.196Z,93.00
2018-09-06T21:28:11.291Z,93.00
2018-09-06T21:30:39.332Z,93.10
2018-09-06T21:33:07.916Z,93.10
2018-09-06T21:35:36.190Z,93.30
2018-09-06T21:38:04.600Z,93.50
2018-09-06T21:40:32.804Z,93.50
2018-09-06T21:43:01.461Z,93.50
2018-09-06T21:45:29.795Z,93.50
2018-09-06T21:48:00.028Z,93.50
2018-09-06T21:50:30.374Z,93.50
2018-09-06T21:52:59.607Z,93.40
2018-09-06T21:55:27.922Z,93.40
2018-09-06T21:57:56.143Z,93.40
2018-09-06T22:00:24.816Z,93.50
2018-09-06T22:02:59.301Z,93.50
2018-09-06T22:05:27.885Z,93.30
2018-09-06T22:07:57.054Z,93.20
2018-09-06T22:10:26.353Z,93.20
2018-09-06T22:12:54.827Z,93.30
2018-09-06T22:15:23.224Z,93.30
2018-09-06T22:17:51.711Z,93.30
2018-09-06T22:20:20.603Z,93.30
2018-09-06T22:22:48.931Z,93.20
2018-09-06T22:25:17.228Z,93.20
2018-09-06T22:27:45.429Z,93.30
2018-09-06T22:30:13.708Z,93.20
2018-09-06T22:32:41.994Z,93.40
2018-09-06T22:35:10.239Z,93.40
2018-09-06T22:37:38.662Z,93.50
2018-09-06T22:40:09.363Z,93.60
2018-09-06T22:42:44.694Z,93.80
2018-09-06T22:45:19.515Z,93.80
2018-09-06T22:47:48.062Z,93.80
2018-09-06T22:50:19.356Z,93.70
2018-09-06T22:52:49.157Z,93.90
2018-09-06T22:55:17.677Z,93.90
2018-09-06T22:57:45.847Z,93.80
2018-09-06T23:00:15.203Z,94.00
2018-09-06T23:02:49.118Z,93.90
2018-09-06T23:05:17.439Z,93.80
2018-09-06T23:07:45.614Z,93.70
2018-09-06T23:10:13.776Z,93.70
2018-09-06T23:12:42.132Z,93.60
2018-09-06T23:15:10.320Z,93.80
2018-09-06T23:17:38.828Z,93.70
2018-09-06T23:20:07.163Z,93.70
2018-09-06T23:22:38.235Z,94.10
2018-09-06T23:25:07.913Z,93.80
2018-09-06T23:27:36.134Z,93.70
2018-09-06T23:30:05.232Z,93.70
2018-09-06T23:32:33.507Z,93.80
2018-09-06T23:35:02.070Z,93.80
2018-09-06T23:37:30.356Z,94.00
2018-09-06T23:39:58.512Z,93.80
2018-09-06T23:42:26.895Z,93.40
2018-09-06T23:44:56.264Z,93.60
2018-09-06T23:47:24.483Z,93.70
2018-09-06T23:49:52.948Z,93.70
2018-09-06T23:52:21.566Z,93.80
2018-09-06T23:54:50.012Z,93.70
2018-09-06T23:57:18.281Z,93.60
2018-09-06T23:59:46.461Z,93.70
